sensor_id;sensor_type;location;lat;lon;timestamp;temperature;humidity
810;DHT22;387;48.772;9.186;2023-04-25T00:01:45;9.50;75.10
810;DHT22;387;48.772;9.186;2023-04-25T00:04:10;9.50;74.90
810;DHT22;387;48.772;9.186;2023-04-25T00:06:36;9.50;74.90
810;DHT22;387;48.772;9.186;2023-04-25T00:09:05;9.50;74.90
810;DHT22;387;48.772;9.186;2023-04-25T00:11:35;9.60;75.20
810;DHT22;387;48.772;9.186;2023-04-25T00:14:02;9.60;74.90
810;DHT22;387;48.772;9.186;2023-04-25T00:16:28;9.50;74.50
810;DHT22;387;48.772;9.186;2023-04-25T00:18:54;9.50;74.80
810;DHT22;387;48.772;9.186;2023-04-25T00:21:20;9.40;74.80
810;DHT22;387;48.772;9.186;2023-04-25T00:23:46;9.50;74.80
810;DHT22;387;48.772;9.186;2023-04-25T00:26:12;9.60;74.30
810;DHT22;387;48.772;9.186;2023-04-25T00:28:39;9.60;74.20
810;DHT22;387;48.772;9.186;2023-04-25T00:31:04;9.50;74.50
810;DHT22;387;48.772;9.186;2023-04-25T00:33:30;9.60;74.80
810;DHT22;387;48.772;9.186;2023-04-25T00:35:56;9.70;74.50
810;DHT22;387;48.772;9.186;2023-04-25T00:38:22;9.80;74.60
810;DHT22;387;48.772;9.186;2023-04-25T00:40:47;9.70;74.50
810;DHT22;387;48.772;9.186;2023-04-25T00:43:13;9.60;75.10
810;DHT22;387;48.772;9.186;2023-04-25T00:45:39;9.70;75.10
810;DHT22;387;48.772;9.186;2023-04-25T00:48:05;9.70;74.90
810;DHT22;387;48.772;9.186;2023-04-25T00:50:33;9.80;74.90
810;DHT22;387;48.772;9.186;2023-04-25T00:52:59;9.90;74.90
810;DHT22;387;48.772;9.186;2023-04-25T00:55:26;9.80;75.10
810;DHT22;387;48.772;9.186;2023-04-25T00:57:52;9.80;75.10
810;DHT22;387;48.772;9.186;2023-04-25T01:00:18;9.80;74.60
810;DHT22;387;48.772;9.186;2023-04-25T01:02:44;9.70;74.30
810;DHT22;387;48.772;9.186;2023-04-25T01:05:10;9.60;74.80
810;DHT22;387;48.772;9.186;2023-04-25T01:07:37;9.60;74.90
810;DHT22;387;48.772;9.186;2023-04-25T01:10:04;9.60;75.10
810;DHT22;387;48.772;9.186;2023-04-25T01:12:30;9.70;75.20
810;DHT22;387;48.772;9.186;2023-04-25T01:14:56;9.60;75.20
810;DHT22;387;48.772;9.186;2023-04-25T01:17:21;9.60;75.40
810;DHT22;387;48.772;9.186;2023-04-25T01:19:47;9.50;75.50
810;DHT22;387;48.772;9.186;2023-04-25T01:22:14;9.50;75.70
810;DHT22;387;48.772;9.186;2023-04-25T01:24:40;9.50;75.80
810;DHT22;387;48.772;9.186;2023-04-25T01:27:06;9.50;75.90
810;DHT22;387;48.772;9.186;2023-04-25T01:29:32;9.60;75.90
810;DHT22;387;48.772;9.186;2023-04-25T01:31:59;9.60;75.90
810;DHT22;387;48.772;9.186;2023-04-25T01:34:24;9.50;76.20
810;DHT22;387;48.772;9.186;2023-04-25T01:36:51;9.40;76.50
810;DHT22;387;48.772;9.186;2023-04-25T01:39:20;9.40;77.00
810;DHT22;387;48.772;9.186;2023-04-25T01:41:47;9.40;77.10
810;DHT22;387;48.772;9.186;2023-04-25T01:44:13;9.50;77.10
810;DHT22;387;48.772;9.186;2023-04-25T01:46:39;9.50;77.30
810;DHT22;387;48.772;9.186;2023-04-25T01:49:05;9.50;77.40
810;DHT22;387;48.772;9.186;2023-04-25T01:51:30;9.40;77.60
810;DHT22;387;48.772;9.186;2023-04-25T01:53:57;9.40;77.70
810;DHT22;387;48.772;9.186;2023-04-25T01:56:22;9.40;77.70
810;DHT22;387;48.772;9.186;2023-04-25T01:58:48;9.40;77.70
810;DHT22;387;48.772;9.186;2023-04-25T02:01:14;9.40;77.80
810;DHT22;387;48.772;9.186;2023-04-25T02:03:40;9.30;78.10
810;DHT22;387;48.772;9.186;2023-04-25T02:06:05;9.30;78.10
810;DHT22;387;48.772;9.186;2023-04-25T02:08:31;9.20;78.60
810;DHT22;387;48.772;9.186;2023-04-25T02:10:57;9.30;78.70
810;DHT22;387;48.772;9.186;2023-04-25T02:13:23;9.30;78.10
810;DHT22;387;48.772;9.186;2023-04-25T02:15:48;9.20;78.00
810;DHT22;387;48.772;9.186;2023-04-25T02:18:14;9.20;78.00
810;DHT22;387;48.772;9.186;2023-04-25T02:20:41;9.20;78.00
810;DHT22;387;48.772;9.186;2023-04-25T02:23:07;9.10;78.10
810;DHT22;387;48.772;9.186;2023-04-25T02:25:33;9.10;78.30
810;DHT22;387;48.772;9.186;2023-04-25T02:27:58;9.00;78.10
810;DHT22;387;48.772;9.186;2023-04-25T02:30:24;9.00;78.10
810;DHT22;387;48.772;9.186;2023-04-25T02:32:50;9.00;77.80
810;DHT22;387;48.772;9.186;2023-04-25T02:35:15;9.00;77.30
810;DHT22;387;48.772;9.186;2023-04-25T02:37:42;9.00;77.30
810;DHT22;387;48.772;9.186;2023-04-25T02:40:08;9.00;77.10
810;DHT22;387;48.772;9.186;2023-04-25T02:42:33;8.90;77.10
810;DHT22;387;48.772;9.186;2023-04-25T02:44:59;9.00;77.10
810;DHT22;387;48.772;9.186;2023-04-25T02:47:25;9.00;77.40
810;DHT22;387;48.772;9.186;2023-04-25T02:49:50;9.10;77.70
810;DHT22;387;48.772;9.186;2023-04-25T02:52:16;9.10;77.60
810;DHT22;387;48.772;9.186;2023-04-25T02:54:42;9.00;77.70
810;DHT22;387;48.772;9.186;2023-04-25T02:57:07;9.00;78.00
810;DHT22;387;48.772;9.186;2023-04-25T02:59:33;8.90;78.00
810;DHT22;387;48.772;9.186;2023-04-25T03:01:59;8.80;78.70
810;DHT22;387;48.772;9.186;2023-04-25T03:04:25;8.80;78.10
810;DHT22;387;48.772;9.186;2023-04-25T03:06:51;8.80;78.30
810;DHT22;387;48.772;9.186;2023-04-25T03:09:17;8.90;78.30
810;DHT22;387;48.772;9.186;2023-04-25T03:11:44;8.90;78.40
810;DHT22;387;48.772;9.186;2023-04-25T03:14:10;9.00;78.30
810;DHT22;387;48.772;9.186;2023-04-25T03:16:36;9.00;78.00
810;DHT22;387;48.772;9.186;2023-04-25T03:19:02;9.00;77.70
810;DHT22;387;48.772;9.186;2023-04-25T03:21:29;9.00;77.70
810;DHT22;387;48.772;9.186;2023-04-25T03:23:54;9.10;77.30
810;DHT22;387;48.772;9.186;2023-04-25T03:26:20;9.10;77.30
810;DHT22;387;48.772;9.186;2023-04-25T03:28:46;9.20;77.10
810;DHT22;387;48.772;9.186;2023-04-25T03:31:11;9.10;76.50
810;DHT22;387;48.772;9.186;2023-04-25T03:33:37;9.00;76.80
810;DHT22;387;48.772;9.186;2023-04-25T03:36:02;9.00;76.80
810;DHT22;387;48.772;9.186;2023-04-25T03:38:28;9.00;77.30
810;DHT22;387;48.772;9.186;2023-04-25T03:40:54;9.00;77.00
810;DHT22;387;48.772;9.186;2023-04-25T03:43:21;9.00;76.70
810;DHT22;387;48.772;9.186;2023-04-25T03:45:47;8.90;76.70
810;DHT22;387;48.772;9.186;2023-04-25T03:48:12;8.90;76.80
810;DHT22;387;48.772;9.186;2023-04-25T03:50:38;9.00;77.30
810;DHT22;387;48.772;9.186;2023-04-25T03:53:03;9.00;77.40
810;DHT22;387;48.772;9.186;2023-04-25T03:55:29;9.00;77.40
810;DHT22;387;48.772;9.186;2023-04-25T03:57:55;9.00;77.10
810;DHT22;387;48.772;9.186;2023-04-25T04:00:20;9.10;77.10
810;DHT22;387;48.772;9.186;2023-04-25T04:02:46;9.00;77.30
810;DHT22;387;48.772;9.186;2023-04-25T04:05:11;9.00;77.30
810;DHT22;387;48.772;9.186;2023-04-25T04:07:37;9.00;77.30
810;DHT22;387;48.772;9.186;2023-04-25T04:10:11;8.90;77.60
810;DHT22;387;48.772;9.186;2023-04-25T04:12:37;8.80;78.10
810;DHT22;387;48.772;9.186;2023-04-25T04:15:04;8.80;78.60
810;DHT22;387;48.772;9.186;2023-04-25T04:17:30;8.70;79.00
810;DHT22;387;48.772;9.186;2023-04-25T04:19:56;8.70;79.20
810;DHT22;387;48.772;9.186;2023-04-25T04:22:22;8.70;79.20
810;DHT22;387;48.772;9.186;2023-04-25T04:24:48;8.60;78.90
810;DHT22;387;48.772;9.186;2023-04-25T04:27:18;8.60;79.00
810;DHT22;387;48.772;9.186;2023-04-25T04:29:45;8.70;79.00
810;DHT22;387;48.772;9.186;2023-04-25T04:32:11;8.70;78.90
810;DHT22;387;48.772;9.186;2023-04-25T04:34:37;8.60;78.40
810;DHT22;387;48.772;9.186;2023-04-25T04:37:02;8.60;78.90
810;DHT22;387;48.772;9.186;2023-04-25T04:39:28;8.60;79.00
810;DHT22;387;48.772;9.186;2023-04-25T04:41:54;8.60;78.90
810;DHT22;387;48.772;9.186;2023-04-25T04:44:19;8.60;79.00
810;DHT22;387;48.772;9.186;2023-04-25T04:46:45;8.60;79.20
810;DHT22;387;48.772;9.186;2023-04-25T04:49:12;8.70;79.20
810;DHT22;387;48.772;9.186;2023-04-25T04:51:39;8.80;79.30
810;DHT22;387;48.772;9.186;2023-04-25T04:54:05;8.80;78.70
810;DHT22;387;48.772;9.186;2023-04-25T04:56:31;8.70;78.70
810;DHT22;387;48.772;9.186;2023-04-25T04:58:57;8.80;78.90
810;DHT22;387;48.772;9.186;2023-04-25T05:01:26;8.80;79.00
810;DHT22;387;48.772;9.186;2023-04-25T05:03:52;8.80;78.90
810;DHT22;387;48.772;9.186;2023-04-25T05:06:43;8.90;78.60
810;DHT22;387;48.772;9.186;2023-04-25T05:09:09;8.90;78.70
810;DHT22;387;48.772;9.186;2023-04-25T05:11:35;8.90;78.30
810;DHT22;387;48.772;9.186;2023-04-25T05:14:01;8.80;78.60
810;DHT22;387;48.772;9.186;2023-04-25T05:16:26;8.90;78.40
810;DHT22;387;48.772;9.186;2023-04-25T05:18:52;8.90;78.10
810;DHT22;387;48.772;9.186;2023-04-25T05:21:18;8.90;78.00
810;DHT22;387;48.772;9.186;2023-04-25T05:23:43;9.00;77.80
810;DHT22;387;48.772;9.186;2023-04-25T05:26:09;9.00;77.80
810;DHT22;387;48.772;9.186;2023-04-25T05:28:39;9.00;77.70
810;DHT22;387;48.772;9.186;2023-04-25T05:31:06;9.00;77.60
810;DHT22;387;48.772;9.186;2023-04-25T05:33:32;9.10;77.40
810;DHT22;387;48.772;9.186;2023-04-25T05:35:57;9.00;77.60
810;DHT22;387;48.772;9.186;2023-04-25T05:38:23;9.20;77.40
810;DHT22;387;48.772;9.186;2023-04-25T05:40:48;9.30;76.50
810;DHT22;387;48.772;9.186;2023-04-25T05:43:14;9.40;76.20
810;DHT22;387;48.772;9.186;2023-04-25T05:45:39;9.50;75.20
810;DHT22;387;48.772;9.186;2023-04-25T05:48:05;9.50;75.20
810;DHT22;387;48.772;9.186;2023-04-25T05:50:31;9.50;74.00
810;DHT22;387;48.772;9.186;2023-04-25T05:52:56;9.50;73.70
810;DHT22;387;48.772;9.186;2023-04-25T05:55:22;9.60;73.70
810;DHT22;387;48.772;9.186;2023-04-25T05:57:47;9.70;73.70
810;DHT22;387;48.772;9.186;2023-04-25T06:00:14;9.60;73.30
810;DHT22;387;48.772;9.186;2023-04-25T06:02:41;9.50;73.50
810;DHT22;387;48.772;9.186;2023-04-25T06:05:07;9.40;73.20
810;DHT22;387;48.772;9.186;2023-04-25T06:07:33;9.40;73.50
810;DHT22;387;48.772;9.186;2023-04-25T06:09:58;9.30;73.00
810;DHT22;387;48.772;9.186;2023-04-25T06:12:26;9.30;73.30
810;DHT22;387;48.772;9.186;2023-04-25T06:14:51;9.30;73.50
810;DHT22;387;48.772;9.186;2023-04-25T06:17:17;9.20;73.30
810;DHT22;387;48.772;9.186;2023-04-25T06:19:42;9.10;73.90
810;DHT22;387;48.772;9.186;2023-04-25T06:22:08;9.10;74.60
810;DHT22;387;48.772;9.186;2023-04-25T06:24:34;9.10;74.80
810;DHT22;387;48.772;9.186;2023-04-25T06:27:00;9.30;74.90
810;DHT22;387;48.772;9.186;2023-04-25T06:29:25;9.40;73.90
810;DHT22;387;48.772;9.186;2023-04-25T06:31:51;9.50;73.60
810;DHT22;387;48.772;9.186;2023-04-25T06:34:17;9.50;73.60
810;DHT22;387;48.772;9.186;2023-04-25T06:36:42;9.60;73.50
810;DHT22;387;48.772;9.186;2023-04-25T06:39:09;9.70;73.90
810;DHT22;387;48.772;9.186;2023-04-25T06:41:35;9.60;74.90
810;DHT22;387;48.772;9.186;2023-04-25T06:44:01;9.40;75.80
810;DHT22;387;48.772;9.186;2023-04-25T06:46:27;9.20;77.10
810;DHT22;387;48.772;9.186;2023-04-25T06:48:52;8.90;78.40
810;DHT22;387;48.772;9.186;2023-04-25T06:51:18;8.80;79.50
810;DHT22;387;48.772;9.186;2023-04-25T06:53:44;8.50;80.50
810;DHT22;387;48.772;9.186;2023-04-25T06:56:09;8.50;81.50
810;DHT22;387;48.772;9.186;2023-04-25T06:58:35;8.60;81.80
810;DHT22;387;48.772;9.186;2023-04-25T07:01:01;8.70;81.70
810;DHT22;387;48.772;9.186;2023-04-25T07:03:26;8.60;79.70
810;DHT22;387;48.772;9.186;2023-04-25T07:05:52;8.60;79.70
810;DHT22;387;48.772;9.186;2023-04-25T07:08:17;8.70;80.20
810;DHT22;387;48.772;9.186;2023-04-25T07:10:43;8.80;79.90
810;DHT22;387;48.772;9.186;2023-04-25T07:13:08;8.80;79.60
810;DHT22;387;48.772;9.186;2023-04-25T07:15:34;8.90;80.30
810;DHT22;387;48.772;9.186;2023-04-25T07:18:00;8.90;80.80
810;DHT22;387;48.772;9.186;2023-04-25T07:20:25;8.90;81.40
810;DHT22;387;48.772;9.186;2023-04-25T07:22:52;8.70;81.50
810;DHT22;387;48.772;9.186;2023-04-25T07:25:19;8.60;82.50
810;DHT22;387;48.772;9.186;2023-04-25T07:27:45;8.50;83.10
810;DHT22;387;48.772;9.186;2023-04-25T07:30:11;8.50;83.30
810;DHT22;387;48.772;9.186;2023-04-25T07:32:37;8.50;83.70
810;DHT22;387;48.772;9.186;2023-04-25T07:35:03;8.50;84.10
810;DHT22;387;48.772;9.186;2023-04-25T07:37:29;8.50;84.60
810;DHT22;387;48.772;9.186;2023-04-25T07:39:55;8.50;84.70
810;DHT22;387;48.772;9.186;2023-04-25T07:42:20;8.40;84.90
810;DHT22;387;48.772;9.186;2023-04-25T07:44:46;8.40;85.60
810;DHT22;387;48.772;9.186;2023-04-25T07:47:12;8.40;86.30
810;DHT22;387;48.772;9.186;2023-04-25T07:49:38;8.30;86.60
810;DHT22;387;48.772;9.186;2023-04-25T07:52:05;8.30;87.00
810;DHT22;387;48.772;9.186;2023-04-25T07:54:35;8.40;87.40
810;DHT22;387;48.772;9.186;2023-04-25T07:57:00;8.40;87.40
810;DHT22;387;48.772;9.186;2023-04-25T07:59:26;8.40;87.00
810;DHT22;387;48.772;9.186;2023-04-25T08:01:51;8.30;86.90
810;DHT22;387;48.772;9.186;2023-04-25T08:04:17;8.30;86.90
810;DHT22;387;48.772;9.186;2023-04-25T08:06:43;8.30;86.80
810;DHT22;387;48.772;9.186;2023-04-25T08:09:09;8.30;86.90
810;DHT22;387;48.772;9.186;2023-04-25T08:11:35;8.30;87.10
810;DHT22;387;48.772;9.186;2023-04-25T08:14:01;8.40;87.40
810;DHT22;387;48.772;9.186;2023-04-25T08:16:27;8.40;87.80
810;DHT22;387;48.772;9.186;2023-04-25T08:18:53;8.30;88.00
810;DHT22;387;48.772;9.186;2023-04-25T08:21:18;8.30;88.40
810;DHT22;387;48.772;9.186;2023-04-25T08:23:44;8.20;88.30
810;DHT22;387;48.772;9.186;2023-04-25T08:26:09;8.20;88.40
810;DHT22;387;48.772;9.186;2023-04-25T08:28:35;8.20;88.90
810;DHT22;387;48.772;9.186;2023-04-25T08:31:00;8.20;88.90
810;DHT22;387;48.772;9.186;2023-04-25T08:33:26;8.20;88.60
810;DHT22;387;48.772;9.186;2023-04-25T08:35:52;8.20;88.70
810;DHT22;387;48.772;9.186;2023-04-25T08:38:17;8.20;89.00
810;DHT22;387;48.772;9.186;2023-04-25T08:40:43;8.10;89.50
810;DHT22;387;48.772;9.186;2023-04-25T08:43:09;8.10;89.70
810;DHT22;387;48.772;9.186;2023-04-25T08:45:41;8.10;89.60
810;DHT22;387;48.772;9.186;2023-04-25T08:48:10;8.00;89.60
810;DHT22;387;48.772;9.186;2023-04-25T08:51:01;8.00;89.70
810;DHT22;387;48.772;9.186;2023-04-25T08:53:27;8.10;90.10
810;DHT22;387;48.772;9.186;2023-04-25T08:55:54;8.10;90.00
810;DHT22;387;48.772;9.186;2023-04-25T08:58:21;8.10;89.90
810;DHT22;387;48.772;9.186;2023-04-25T09:00:47;8.10;89.70
810;DHT22;387;48.772;9.186;2023-04-25T09:03:13;8.00;89.50
810;DHT22;387;48.772;9.186;2023-04-25T09:05:40;8.00;89.50
810;DHT22;387;48.772;9.186;2023-04-25T09:08:07;8.00;89.60
810;DHT22;387;48.772;9.186;2023-04-25T09:10:33;7.90;89.90
810;DHT22;387;48.772;9.186;2023-04-25T09:13:13;7.90;90.10
810;DHT22;387;48.772;9.186;2023-04-25T09:15:51;7.90;90.20
810;DHT22;387;48.772;9.186;2023-04-25T09:18:29;8.00;90.20
810;DHT22;387;48.772;9.186;2023-04-25T09:20:56;8.00;90.40
810;DHT22;387;48.772;9.186;2023-04-25T09:23:23;7.90;90.40
810;DHT22;387;48.772;9.186;2023-04-25T09:25:52;7.90;90.40
810;DHT22;387;48.772;9.186;2023-04-25T09:28:25;7.80;90.50
810;DHT22;387;48.772;9.186;2023-04-25T09:30:55;7.90;90.50
810;DHT22;387;48.772;9.186;2023-04-25T09:33:30;7.80;90.50
810;DHT22;387;48.772;9.186;2023-04-25T09:36:05;7.80;90.80
810;DHT22;387;48.772;9.186;2023-04-25T09:38:32;7.80;90.90
810;DHT22;387;48.772;9.186;2023-04-25T09:40:58;7.70;91.00
810;DHT22;387;48.772;9.186;2023-04-25T09:43:26;7.80;91.20
810;DHT22;387;48.772;9.186;2023-04-25T09:45:54;7.80;91.30
810;DHT22;387;48.772;9.186;2023-04-25T09:48:24;7.80;91.30
810;DHT22;387;48.772;9.186;2023-04-25T09:51:13;7.80;91.30
810;DHT22;387;48.772;9.186;2023-04-25T09:53:43;7.90;90.80
810;DHT22;387;48.772;9.186;2023-04-25T09:56:10;7.80;89.20
810;DHT22;387;48.772;9.186;2023-04-25T09:58:40;7.80;88.90
810;DHT22;387;48.772;9.186;2023-04-25T10:01:08;7.90;89.30
810;DHT22;387;48.772;9.186;2023-04-25T10:03:39;8.00;89.50
810;DHT22;387;48.772;9.186;2023-04-25T10:06:12;8.00;89.00
810;DHT22;387;48.772;9.186;2023-04-25T10:08:39;8.10;89.60
810;DHT22;387;48.772;9.186;2023-04-25T10:11:07;8.20;90.10
810;DHT22;387;48.772;9.186;2023-04-25T10:13:34;8.30;90.30
810;DHT22;387;48.772;9.186;2023-04-25T10:16:04;8.20;89.90
810;DHT22;387;48.772;9.186;2023-04-25T10:18:30;8.20;88.10
810;DHT22;387;48.772;9.186;2023-04-25T10:20:59;8.00;87.60
810;DHT22;387;48.772;9.186;2023-04-25T10:23:25;8.00;87.60
810;DHT22;387;48.772;9.186;2023-04-25T10:25:52;7.90;87.40
810;DHT22;387;48.772;9.186;2023-04-25T10:28:18;7.80;87.60
810;DHT22;387;48.772;9.186;2023-04-25T10:31:00;7.90;88.40
810;DHT22;387;48.772;9.186;2023-04-25T10:36:11;8.20;88.60
810;DHT22;387;48.772;9.186;2023-04-25T10:38:38;8.30;88.60
810;DHT22;387;48.772;9.186;2023-04-25T10:41:08;8.30;88.00
810;DHT22;387;48.772;9.186;2023-04-25T10:43:38;8.20;87.70
810;DHT22;387;48.772;9.186;2023-04-25T10:46:25;8.10;87.00
810;DHT22;387;48.772;9.186;2023-04-25T10:49:01;8.00;86.90
810;DHT22;387;48.772;9.186;2023-04-25T10:51:32;7.90;87.00
810;DHT22;387;48.772;9.186;2023-04-25T10:54:02;8.00;87.10
810;DHT22;387;48.772;9.186;2023-04-25T10:56:30;7.80;85.30
810;DHT22;387;48.772;9.186;2023-04-25T11:01:39;7.70;86.60
810;DHT22;387;48.772;9.186;2023-04-25T11:04:05;7.50;85.70
810;DHT22;387;48.772;9.186;2023-04-25T11:09:29;7.60;87.10
810;DHT22;387;48.772;9.186;2023-04-25T11:11:57;7.50;86.90
810;DHT22;387;48.772;9.186;2023-04-25T11:14:23;7.60;87.10
810;DHT22;387;48.772;9.186;2023-04-25T11:16:59;7.70;85.90
810;DHT22;387;48.772;9.186;2023-04-25T11:19:25;7.70;85.60
810;DHT22;387;48.772;9.186;2023-04-25T11:21:58;7.80;85.70
810;DHT22;387;48.772;9.186;2023-04-25T11:24:29;8.00;86.30
810;DHT22;387;48.772;9.186;2023-04-25T11:26:55;8.10;85.70
810;DHT22;387;48.772;9.186;2023-04-25T11:29:28;8.20;85.30
810;DHT22;387;48.772;9.186;2023-04-25T11:31:54;8.30;85.20
810;DHT22;387;48.772;9.186;2023-04-25T11:34:24;8.30;83.10
810;DHT22;387;48.772;9.186;2023-04-25T11:36:51;8.20;81.20
810;DHT22;387;48.772;9.186;2023-04-25T11:39:21;8.40;81.70
810;DHT22;387;48.772;9.186;2023-04-25T11:41:47;8.60;81.50
810;DHT22;387;48.772;9.186;2023-04-25T11:44:15;8.60;80.60
810;DHT22;387;48.772;9.186;2023-04-25T11:46:42;8.70;80.60
810;DHT22;387;48.772;9.186;2023-04-25T11:49:08;8.60;79.50
810;DHT22;387;48.772;9.186;2023-04-25T11:51:44;8.40;80.00
810;DHT22;387;48.772;9.186;2023-04-25T11:54:10;8.50;81.50
810;DHT22;387;48.772;9.186;2023-04-25T11:56:37;8.20;81.90
810;DHT22;387;48.772;9.186;2023-04-25T11:59:05;8.10;83.30
810;DHT22;387;48.772;9.186;2023-04-25T12:01:35;8.20;83.80
810;DHT22;387;48.772;9.186;2023-04-25T12:04:22;8.30;83.30
810;DHT22;387;48.772;9.186;2023-04-25T12:06:52;8.40;82.80
810;DHT22;387;48.772;9.186;2023-04-25T12:09:20;8.50;82.50
810;DHT22;387;48.772;9.186;2023-04-25T12:11:54;8.60;83.00
810;DHT22;387;48.772;9.186;2023-04-25T12:14:34;8.70;82.50
810;DHT22;387;48.772;9.186;2023-04-25T12:17:02;8.80;82.20
810;DHT22;387;48.772;9.186;2023-04-25T12:19:33;8.90;81.80
810;DHT22;387;48.772;9.186;2023-04-25T12:22:00;9.00;81.80
810;DHT22;387;48.772;9.186;2023-04-25T12:24:27;8.90;81.10
810;DHT22;387;48.772;9.186;2023-04-25T12:27:04;8.70;80.20
810;DHT22;387;48.772;9.186;2023-04-25T12:29:32;8.60;80.80
810;DHT22;387;48.772;9.186;2023-04-25T12:31:59;8.30;81.80
810;DHT22;387;48.772;9.186;2023-04-25T12:34:27;8.40;82.80
810;DHT22;387;48.772;9.186;2023-04-25T12:36:53;8.30;83.00
810;DHT22;387;48.772;9.186;2023-04-25T12:39:23;8.30;83.70
810;DHT22;387;48.772;9.186;2023-04-25T12:41:50;8.20;85.00
810;DHT22;387;48.772;9.186;2023-04-25T12:44:16;8.40;85.70
810;DHT22;387;48.772;9.186;2023-04-25T12:46:42;8.40;85.50
810;DHT22;387;48.772;9.186;2023-04-25T12:49:08;8.50;86.00
810;DHT22;387;48.772;9.186;2023-04-25T12:51:34;8.60;86.00
810;DHT22;387;48.772;9.186;2023-04-25T12:54:01;8.90;86.20
810;DHT22;387;48.772;9.186;2023-04-25T12:56:28;9.10;85.60
810;DHT22;387;48.772;9.186;2023-04-25T12:58:54;9.40;84.30
810;DHT22;387;48.772;9.186;2023-04-25T13:01:20;9.70;82.50
810;DHT22;387;48.772;9.186;2023-04-25T13:03:46;9.80;81.20
810;DHT22;387;48.772;9.186;2023-04-25T13:06:13;9.90;79.30
810;DHT22;387;48.772;9.186;2023-04-25T13:08:38;10.00;78.60
810;DHT22;387;48.772;9.186;2023-04-25T13:11:05;10.30;77.70
810;DHT22;387;48.772;9.186;2023-04-25T13:13:31;10.40;76.50
810;DHT22;387;48.772;9.186;2023-04-25T13:15:57;10.60;77.10
810;DHT22;387;48.772;9.186;2023-04-25T13:18:23;10.60;76.50
810;DHT22;387;48.772;9.186;2023-04-25T13:20:52;10.70;76.70
810;DHT22;387;48.772;9.186;2023-04-25T13:23:18;10.70;77.00
810;DHT22;387;48.772;9.186;2023-04-25T13:25:44;10.80;76.80
810;DHT22;387;48.772;9.186;2023-04-25T13:28:10;10.50;75.90
810;DHT22;387;48.772;9.186;2023-04-25T13:30:36;10.40;76.20
810;DHT22;387;48.772;9.186;2023-04-25T13:33:02;10.40;74.50
810;DHT22;387;48.772;9.186;2023-04-25T13:35:29;10.50;74.90
810;DHT22;387;48.772;9.186;2023-04-25T13:37:55;10.80;74.80
810;DHT22;387;48.772;9.186;2023-04-25T13:40:21;11.20;74.80
810;DHT22;387;48.772;9.186;2023-04-25T13:42:46;11.50;75.10
810;DHT22;387;48.772;9.186;2023-04-25T13:45:12;11.40;74.30
810;DHT22;387;48.772;9.186;2023-04-25T13:47:37;11.10;72.30
810;DHT22;387;48.772;9.186;2023-04-25T13:50:04;11.00;72.70
810;DHT22;387;48.772;9.186;2023-04-25T13:52:33;10.80;73.50
810;DHT22;387;48.772;9.186;2023-04-25T13:54:59;10.40;74.60
810;DHT22;387;48.772;9.186;2023-04-25T13:57:25;10.30;75.80
810;DHT22;387;48.772;9.186;2023-04-25T13:59:51;10.40;76.70
810;DHT22;387;48.772;9.186;2023-04-25T14:02:17;10.70;76.80
810;DHT22;387;48.772;9.186;2023-04-25T14:04:43;11.00;74.20
810;DHT22;387;48.772;9.186;2023-04-25T14:07:08;11.30;73.60
810;DHT22;387;48.772;9.186;2023-04-25T14:09:36;11.10;73.00
810;DHT22;387;48.772;9.186;2023-04-25T14:12:02;10.90;73.00
810;DHT22;387;48.772;9.186;2023-04-25T14:14:27;10.90;73.60
810;DHT22;387;48.772;9.186;2023-04-25T14:16:53;11.00;73.70
810;DHT22;387;48.772;9.186;2023-04-25T14:19:20;11.50;73.90
810;DHT22;387;48.772;9.186;2023-04-25T14:21:46;11.70;72.70
810;DHT22;387;48.772;9.186;2023-04-25T14:24:12;12.50;71.40
810;DHT22;387;48.772;9.186;2023-04-25T14:26:39;12.80;69.20
810;DHT22;387;48.772;9.186;2023-04-25T14:29:05;13.10;68.60
810;DHT22;387;48.772;9.186;2023-04-25T14:31:32;13.70;68.50
810;DHT22;387;48.772;9.186;2023-04-25T14:33:58;14.50;67.30
810;DHT22;387;48.772;9.186;2023-04-25T14:36:24;14.90;64.10
810;DHT22;387;48.772;9.186;2023-04-25T14:38:49;14.40;62.00
810;DHT22;387;48.772;9.186;2023-04-25T14:41:15;13.90;64.80
810;DHT22;387;48.772;9.186;2023-04-25T14:43:41;14.20;65.00
810;DHT22;387;48.772;9.186;2023-04-25T14:46:06;14.20;64.70
810;DHT22;387;48.772;9.186;2023-04-25T14:48:33;13.60;65.00
810;DHT22;387;48.772;9.186;2023-04-25T14:50:59;13.10;67.00
810;DHT22;387;48.772;9.186;2023-04-25T14:53:27;12.80;67.20
810;DHT22;387;48.772;9.186;2023-04-25T14:55:53;12.70;68.20
810;DHT22;387;48.772;9.186;2023-04-25T14:58:19;12.70;68.80
810;DHT22;387;48.772;9.186;2023-04-25T15:00:46;12.60;68.60
810;DHT22;387;48.772;9.186;2023-04-25T15:03:12;12.50;69.10
810;DHT22;387;48.772;9.186;2023-04-25T15:05:39;12.50;69.10
810;DHT22;387;48.772;9.186;2023-04-25T15:08:05;12.60;69.40
810;DHT22;387;48.772;9.186;2023-04-25T15:10:31;12.50;69.50
810;DHT22;387;48.772;9.186;2023-04-25T15:12:56;12.20;69.80
810;DHT22;387;48.772;9.186;2023-04-25T15:15:22;11.90;69.70
810;DHT22;387;48.772;9.186;2023-04-25T15:17:49;11.60;69.90
810;DHT22;387;48.772;9.186;2023-04-25T15:20:15;11.60;70.50
810;DHT22;387;48.772;9.186;2023-04-25T15:22:41;11.50;71.10
810;DHT22;387;48.772;9.186;2023-04-25T15:25:08;11.30;72.00
810;DHT22;387;48.772;9.186;2023-04-25T15:27:34;11.20;72.10
810;DHT22;387;48.772;9.186;2023-04-25T15:30:05;11.30;72.70
810;DHT22;387;48.772;9.186;2023-04-25T15:32:31;11.40;72.10
810;DHT22;387;48.772;9.186;2023-04-25T15:34:56;11.50;72.40
810;DHT22;387;48.772;9.186;2023-04-25T15:37:22;11.70;71.60
810;DHT22;387;48.772;9.186;2023-04-25T15:39:47;11.80;71.10
810;DHT22;387;48.772;9.186;2023-04-25T15:42:13;12.00;70.40
810;DHT22;387;48.772;9.186;2023-04-25T15:44:38;12.10;70.20
810;DHT22;387;48.772;9.186;2023-04-25T15:47:04;12.30;70.70
810;DHT22;387;48.772;9.186;2023-04-25T15:49:30;12.30;69.20
810;DHT22;387;48.772;9.186;2023-04-25T15:51:55;12.20;68.80
810;DHT22;387;48.772;9.186;2023-04-25T15:54:21;11.90;69.40
810;DHT22;387;48.772;9.186;2023-04-25T15:56:47;11.70;69.80
810;DHT22;387;48.772;9.186;2023-04-25T15:59:12;11.60;70.70
810;DHT22;387;48.772;9.186;2023-04-25T16:01:38;11.50;70.80
810;DHT22;387;48.772;9.186;2023-04-25T16:04:04;11.50;71.00
810;DHT22;387;48.772;9.186;2023-04-25T16:06:30;11.40;70.20
810;DHT22;387;48.772;9.186;2023-04-25T16:08:56;11.30;70.80
810;DHT22;387;48.772;9.186;2023-04-25T16:11:22;11.30;71.60
810;DHT22;387;48.772;9.186;2023-04-25T16:13:48;11.20;71.70
810;DHT22;387;48.772;9.186;2023-04-25T16:16:15;11.10;71.80
810;DHT22;387;48.772;9.186;2023-04-25T16:18:40;11.10;72.00
810;DHT22;387;48.772;9.186;2023-04-25T16:21:06;11.20;72.40
810;DHT22;387;48.772;9.186;2023-04-25T16:23:32;11.20;72.00
810;DHT22;387;48.772;9.186;2023-04-25T16:25:58;11.20;72.30
810;DHT22;387;48.772;9.186;2023-04-25T16:28:23;11.20;72.60
810;DHT22;387;48.772;9.186;2023-04-25T16:30:49;11.30;72.30
810;DHT22;387;48.772;9.186;2023-04-25T16:33:14;11.50;71.60
810;DHT22;387;48.772;9.186;2023-04-25T16:35:40;11.50;71.30
810;DHT22;387;48.772;9.186;2023-04-25T16:38:06;11.60;71.40
810;DHT22;387;48.772;9.186;2023-04-25T16:40:31;11.40;71.00
810;DHT22;387;48.772;9.186;2023-04-25T16:42:57;11.40;71.30
810;DHT22;387;48.772;9.186;2023-04-25T16:45:22;11.40;71.00
810;DHT22;387;48.772;9.186;2023-04-25T16:47:48;11.30;70.80
810;DHT22;387;48.772;9.186;2023-04-25T16:50:14;11.20;71.10
810;DHT22;387;48.772;9.186;2023-04-25T16:52:40;11.30;71.10